createdAt,value
2023-02-21T00:04:49.501Z,29.23
2023-02-21T00:10:10.178Z,35.93
2023-02-21T00:15:31.886Z,35.80
2023-02-21T00:20:52.234Z,32.50
2023-02-21T00:26:13.050Z,39.30
2023-02-21T00:31:38.068Z,36.33
2023-02-21T00:36:58.283Z,33.70
2023-02-21T00:42:18.572Z,36.30
2023-02-21T00:47:40.537Z,32.97
2023-02-21T00:53:00.730Z,36.27
2023-02-21T00:58:22.854Z,33.03
2023-02-21T01:03:44.616Z,41.67
2023-02-21T01:09:08.410Z,40.23
2023-02-21T01:14:28.635Z,35.47
2023-02-21T01:19:50.192Z,35.87
2023-02-21T01:25:12.056Z,38.17
2023-02-21T01:30:32.602Z,35.57
2023-02-21T01:35:54.154Z,35.07
2023-02-21T01:41:16.044Z,36.93
2023-02-21T01:46:37.928Z,43.87
2023-02-21T01:52:01.787Z,42.10
2023-02-21T01:57:24.053Z,43.17
2023-02-21T02:02:49.879Z,49.67
2023-02-21T02:08:19.781Z,43.60
2023-02-21T02:13:36.448Z,53.17
2023-02-21T02:19:17.638Z,43.80
2023-02-21T02:24:40.851Z,43.80
2023-02-21T02:30:04.763Z,44.57
2023-02-21T02:35:14.490Z,47.93
2023-02-21T02:40:28.699Z,48.60
2023-02-21T02:45:37.959Z,47.60
2023-02-21T02:50:42.560Z,44.23
2023-02-21T02:55:51.613Z,44.23
2023-02-21T03:01:20.201Z,45.80
2023-02-21T03:06:31.314Z,44.13
2023-02-21T03:11:34.115Z,45.63
2023-02-21T03:16:42.479Z,47.43
2023-02-21T03:21:51.661Z,46.07
2023-02-21T03:26:58.937Z,47.40
2023-02-21T03:32:31.069Z,52.77
2023-02-21T03:37:38.028Z,47.77
2023-02-21T03:42:41.251Z,43.83
2023-02-21T03:47:44.519Z,52.93
2023-02-21T03:52:48.744Z,53.20
2023-02-21T03:57:51.644Z,46.77
2023-02-21T04:02:56.429Z,55.30
2023-02-21T04:08:25.630Z,49.10
2023-02-21T04:13:30.505Z,43.67
2023-02-21T04:18:36.224Z,45.90
2023-02-21T04:23:42.308Z,46.60
2023-02-21T04:28:45.058Z,49.53
2023-02-21T04:33:47.932Z,46.77
2023-02-21T04:38:58.648Z,49.70
2023-02-21T04:44:01.502Z,49.10
2023-02-21T04:49:08.190Z,57.37
2023-02-21T04:54:13.997Z,52.43
2023-02-21T04:59:16.835Z,51.80
2023-02-21T05:04:19.942Z,50.97
2023-02-21T05:09:23.991Z,52.57
2023-02-21T05:14:30.765Z,54.17
2023-02-21T05:19:38.233Z,52.17
2023-02-21T05:24:43.564Z,58.60
2023-02-21T05:29:48.485Z,61.43
2023-02-21T05:34:51.167Z,58.20
2023-02-21T05:39:55.284Z,54.60
2023-02-21T05:44:58.394Z,52.63
2023-02-21T05:50:01.058Z,58.07
2023-02-21T05:55:05.390Z,50.20
2023-02-21T06:00:09.213Z,56.33
2023-02-21T06:05:17.500Z,57.40
2023-02-21T06:10:22.099Z,55.47
2023-02-21T06:15:24.883Z,53.80
2023-02-21T06:20:30.373Z,66.03
2023-02-21T06:25:36.497Z,61.93
2023-02-21T06:30:39.346Z,62.37
2023-02-21T06:35:42.076Z,72.37
2023-02-21T06:40:46.208Z,73.17
2023-02-21T06:45:48.978Z,77.63
2023-02-21T06:50:54.607Z,78.10
2023-02-21T06:55:58.665Z,66.60
2023-02-21T07:01:01.603Z,81.90
2023-02-21T07:06:04.670Z,72.80
2023-02-21T07:11:09.538Z,88.50
2023-02-21T07:16:14.368Z,79.47
2023-02-21T07:21:18.312Z,83.00
2023-02-21T07:26:22.301Z,64.70
2023-02-21T07:31:27.610Z,61.63
2023-02-21T07:36:30.442Z,65.67
2023-02-21T07:41:35.075Z,53.20
2023-02-21T07:46:37.924Z,57.17
2023-02-21T07:51:40.846Z,54.60
2023-02-21T07:56:52.145Z,49.33
2023-02-21T08:01:55.630Z,52.63
2023-02-21T08:07:00.703Z,59.77
2023-02-21T08:12:05.160Z,52.00
2023-02-21T08:17:11.263Z,52.27
2023-02-21T08:22:14.596Z,62.37
2023-02-21T08:27:18.762Z,50.90
2023-02-21T08:32:21.629Z,47.67
2023-02-21T08:37:24.464Z,46.53
2023-02-21T08:42:30.891Z,43.87
2023-02-21T08:47:36.058Z,46.27
2023-02-21T08:52:41.672Z,47.13
2023-02-21T08:57:45.816Z,44.03
2023-02-21T09:02:51.860Z,40.07
2023-02-21T09:07:58.865Z,41.17
2023-02-21T09:13:03.952Z,34.80
2023-02-21T09:18:07.530Z,36.73
2023-02-21T09:23:10.762Z,28.43
2023-02-21T09:28:15.153Z,31.47
2023-02-21T09:33:18.790Z,31.80
2023-02-21T09:38:21.882Z,26.63
2023-02-21T09:43:33.229Z,30.57
2023-02-21T09:48:41.469Z,31.97
2023-02-21T09:53:47.354Z,31.37
2023-02-21T09:58:51.772Z,28.20
2023-02-21T10:04:05.725Z,27.20
2023-02-21T10:09:21.111Z,25.07
2023-02-21T10:14:41.865Z,23.93
2023-02-21T10:19:54.968Z,26.37
2023-02-21T10:25:04.950Z,17.67
2023-02-21T10:30:16.624Z,24.10
2023-02-21T10:35:19.577Z,20.13
2023-02-21T10:40:34.714Z,21.80
2023-02-21T10:45:45.495Z,19.47
2023-02-21T10:50:53.213Z,19.17
2023-02-21T10:56:25.264Z,18.67
2023-02-21T11:01:39.667Z,19.10
2023-02-21T11:06:47.583Z,16.93
2023-02-21T11:12:01.349Z,14.97
2023-02-21T11:17:23.752Z,17.80
2023-02-21T11:22:41.504Z,14.13
2023-02-21T11:27:46.522Z,15.23
2023-02-21T11:32:56.980Z,16.57
2023-02-21T11:38:02.540Z,16.60
2023-02-21T11:43:24.800Z,14.97
2023-02-21T11:48:45.338Z,12.97
2023-02-21T11:53:50.357Z,11.63
2023-02-21T11:59:02.436Z,14.73
2023-02-21T12:04:24.348Z,11.67
2023-02-21T12:09:36.787Z,8.90
2023-02-21T12:14:49.780Z,8.60
2023-02-21T12:20:16.062Z,14.60
2023-02-21T12:25:27.477Z,8.43
2023-02-21T12:30:44.182Z,9.30
2023-02-21T12:36:15.516Z,10.63
2023-02-21T12:41:42.322Z,8.60
2023-02-21T12:46:53.533Z,9.00
2023-02-21T12:52:03.437Z,10.07
2023-02-21T12:57:12.193Z,10.90
2023-02-21T13:02:24.757Z,12.70
2023-02-21T13:07:37.297Z,7.23
2023-02-21T13:12:45.956Z,7.57
2023-02-21T13:17:59.557Z,7.03
2023-02-21T13:23:40.353Z,8.60
2023-02-21T13:28:44.423Z,28.13
2023-02-21T13:33:52.508Z,7.83
2023-02-21T13:39:03.571Z,9.20
2023-02-21T13:44:10.672Z,10.37
2023-02-21T13:49:53.883Z,9.70
2023-02-21T13:55:27.231Z,13.10
2023-02-21T14:00:49.639Z,12.90
2023-02-21T14:06:32.231Z,10.03
2023-02-21T14:11:45.214Z,12.47
2023-02-21T14:16:52.220Z,12.07
2023-02-21T14:22:03.835Z,13.07
2023-02-21T14:27:37.475Z,17.93
2023-02-21T14:32:45.012Z,11.57
2023-02-21T14:37:56.130Z,11.27
2023-02-21T14:43:16.976Z,12.77
2023-02-21T14:48:34.033Z,12.13
2023-02-21T14:54:07.892Z,10.17
2023-02-21T14:59:28.095Z,10.30
2023-02-21T15:04:38.309Z,12.43
2023-02-21T15:09:44.223Z,11.60
2023-02-21T15:14:53.070Z,15.00
2023-02-21T15:20:06.335Z,11.00
2023-02-21T15:25:25.534Z,12.63
2023-02-21T15:30:39.198Z,10.33
2023-02-21T15:35:46.367Z,12.00
2023-02-21T15:40:51.164Z,12.30
2023-02-21T15:46:01.754Z,10.67
2023-02-21T15:51:11.348Z,15.37
2023-02-21T15:56:24.593Z,12.07
2023-02-21T16:01:28.649Z,12.97
2023-02-21T16:06:32.876Z,11.80
2023-02-21T16:11:41.963Z,13.27
2023-02-21T16:16:47.679Z,15.03
2023-02-21T16:21:51.192Z,11.03
2023-02-21T16:27:04.192Z,12.90
2023-02-21T16:32:18.432Z,12.50
2023-02-21T16:37:23.873Z,11.23
2023-02-21T16:42:26.681Z,13.20
2023-02-21T16:47:30.834Z,12.73
2023-02-21T16:52:33.618Z,43.17
2023-02-21T16:57:36.692Z,11.50
2023-02-21T17:02:41.076Z,12.03
2023-02-21T17:07:43.762Z,14.00
2023-02-21T17:12:46.698Z,8.70
2023-02-21T17:17:53.846Z,10.70
2023-02-21T17:22:59.005Z,11.90
2023-02-21T17:28:02.698Z,11.80
2023-02-21T17:33:09.501Z,13.60
2023-02-21T17:38:13.183Z,11.83
2023-02-21T17:43:17.075Z,14.20
2023-02-21T17:48:23.232Z,12.23
2023-02-21T17:53:31.888Z,15.63
2023-02-21T17:58:38.537Z,17.00
2023-02-21T18:03:44.487Z,46.30
2023-02-21T18:08:47.784Z,26.50
2023-02-21T18:13:51.250Z,20.60
2023-02-21T18:19:03.544Z,19.47
2023-02-21T18:24:14.812Z,19.93
2023-02-21T18:29:17.705Z,19.40
2023-02-21T18:34:35.352Z,22.57
2023-02-21T18:39:43.170Z,26.30
2023-02-21T18:45:30.878Z,25.90
2023-02-21T18:52:31.914Z,23.30
2023-02-21T19:16:30.947Z,22.70
2023-02-21T19:21:35.740Z,23.37
2023-02-21T19:26:39.234Z,26.87
2023-02-21T19:31:52.165Z,25.50
2023-02-21T19:37:07.742Z,45.40
2023-02-21T19:42:11.038Z,29.70
2023-02-21T19:47:15.599Z,26.23
2023-02-21T19:52:22.453Z,24.63
2023-02-21T19:57:25.786Z,24.17
2023-02-21T20:02:36.036Z,29.30
2023-02-21T20:07:38.964Z,26.90
2023-02-21T20:12:44.887Z,26.90
2023-02-21T20:17:50.825Z,27.70
2023-02-21T20:23:03.972Z,26.30
2023-02-21T20:28:21.127Z,26.80
2023-02-21T20:33:38.711Z,29.63
2023-02-21T20:38:42.468Z,30.67
2023-02-21T20:43:48.788Z,32.53
2023-02-21T20:48:59.287Z,53.30
2023-02-21T20:54:05.935Z,32.50
2023-02-21T20:59:16.000Z,32.57
2023-02-21T21:04:26.614Z,33.00
2023-02-21T21:09:34.271Z,31.83
2023-02-21T21:14:41.622Z,33.50
2023-02-21T21:19:50.558Z,34.27
2023-02-21T21:24:58.666Z,173.40
2023-02-21T21:30:22.890Z,47.63
2023-02-21T21:35:30.106Z,40.63
2023-02-21T21:40:33.591Z,39.77
2023-02-21T21:45:47.445Z,42.23
2023-02-21T21:50:55.028Z,49.40
2023-02-21T21:56:05.000Z,131.43
2023-02-21T22:01:17.628Z,68.13
2023-02-21T22:06:22.208Z,49.50
2023-02-21T22:11:25.657Z,53.90
2023-02-21T22:16:36.329Z,192.90
2023-02-21T22:21:48.600Z,52.20
2023-02-21T22:27:01.831Z,58.47
2023-02-21T22:32:12.801Z,60.27
2023-02-21T22:37:17.499Z,60.17
2023-02-21T22:42:23.315Z,68.40
2023-02-21T22:47:27.476Z,61.57
2023-02-21T22:52:32.564Z,183.13
2023-02-21T22:57:35.617Z,78.83
2023-02-21T23:02:49.153Z,65.90
2023-02-21T23:08:02.119Z,70.13
2023-02-21T23:13:04.917Z,67.90
2023-02-21T23:18:07.980Z,74.37
2023-02-21T23:23:20.256Z,79.97
2023-02-21T23:28:23.742Z,66.70
2023-02-21T23:33:29.076Z,77.63
2023-02-21T23:38:38.376Z,77.57
2023-02-21T23:43:41.803Z,77.27
2023-02-21T23:48:45.636Z,85.90
2023-02-21T23:53:52.425Z,87.73
2023-02-21T23:58:55.818Z,82.83
